sensor_id;sensor_type;location;lat;lon;timestamp;pressure;altitude;pressure_sealevel;temperature;humidity
1616;BME280;801;47.982;7.810;2022-08-01T02:30:26;98775.53;;;21.39;100.00
1616;BME280;801;47.982;7.810;2022-08-01T02:33:00;98773.63;;;21.31;100.00
1616;BME280;801;47.982;7.810;2022-08-01T02:35:30;98770.44;;;21.20;100.00
1616;BME280;801;47.982;7.810;2022-08-01T02:38:00;98771.06;;;21.26;100.00
1616;BME280;801;47.982;7.810;2022-08-01T02:40:29;98770.47;;;21.11;100.00
1616;BME280;801;47.982;7.810;2022-08-01T02:42:59;98766.44;;;21.18;100.00
1616;BME280;801;47.982;7.810;2022-08-01T02:45:28;98764.97;;;21.20;100.00
1616;BME280;801;47.982;7.810;2022-08-01T02:47:59;98771.56;;;21.19;100.00
1616;BME280;801;47.982;7.810;2022-08-01T02:50:28;98774.47;;;21.14;100.00
1616;BME280;801;47.982;7.810;2022-08-01T02:52:57;98780.59;;;21.11;100.00
1616;BME280;801;47.982;7.810;2022-08-01T02:55:25;98773.66;;;21.13;100.00
1616;BME280;801;47.982;7.810;2022-08-01T02:57:53;98770.63;;;21.15;100.00
1616;BME280;801;47.982;7.810;2022-08-01T03:00:22;98767.88;;;21.15;100.00
1616;BME280;801;47.982;7.810;2022-08-01T03:02:52;98768.69;;;21.15;100.00
1616;BME280;801;47.982;7.810;2022-08-01T03:05:20;98771.25;;;21.12;100.00
1616;BME280;801;47.982;7.810;2022-08-01T03:07:48;98770.31;;;21.08;100.00
1616;BME280;801;47.982;7.810;2022-08-01T03:10:16;98768.22;;;21.05;100.00
1616;BME280;801;47.982;7.810;2022-08-01T03:12:45;98763.25;;;21.07;100.00
1616;BME280;801;47.982;7.810;2022-08-01T03:15:13;98772.28;;;20.99;100.00
1616;BME280;801;47.982;7.810;2022-08-01T03:17:41;98770.00;;;21.01;100.00
1616;BME280;801;47.982;7.810;2022-08-01T03:20:12;98769.69;;;20.93;100.00
1616;BME280;801;47.982;7.810;2022-08-01T03:22:40;98769.88;;;20.80;100.00
1616;BME280;801;47.982;7.810;2022-08-01T03:25:10;98770.19;;;20.87;100.00
1616;BME280;801;47.982;7.810;2022-08-01T03:27:40;98771.16;;;20.91;100.00
1616;BME280;801;47.982;7.810;2022-08-01T03:30:09;98766.00;;;20.89;100.00
1616;BME280;801;47.982;7.810;2022-08-01T03:32:36;98765.38;;;20.84;100.00
1616;BME280;801;47.982;7.810;2022-08-01T03:35:04;98766.50;;;20.74;100.00
1616;BME280;801;47.982;7.810;2022-08-01T03:37:43;98756.25;;;20.71;100.00
1616;BME280;801;47.982;7.810;2022-08-01T03:40:14;98762.00;;;20.78;100.00
1616;BME280;801;47.982;7.810;2022-08-01T03:42:45;98762.50;;;20.63;100.00
1616;BME280;801;47.982;7.810;2022-08-01T03:45:19;98761.88;;;20.57;100.00
1616;BME280;801;47.982;7.810;2022-08-01T03:47:49;98764.75;;;20.69;100.00
1616;BME280;801;47.982;7.810;2022-08-01T03:50:21;98757.69;;;20.68;100.00
1616;BME280;801;47.982;7.810;2022-08-01T03:52:50;98757.38;;;20.61;100.00
1616;BME280;801;47.982;7.810;2022-08-01T03:55:18;98758.63;;;20.55;100.00
1616;BME280;801;47.982;7.810;2022-08-01T03:57:47;98750.44;;;20.55;100.00
1616;BME280;801;47.982;7.810;2022-08-01T04:00:14;98748.41;;;20.61;100.00
1616;BME280;801;47.982;7.810;2022-08-01T04:02:44;98745.50;;;20.57;100.00
1616;BME280;801;47.982;7.810;2022-08-01T04:05:11;98751.75;;;20.58;100.00
1616;BME280;801;47.982;7.810;2022-08-01T04:07:38;98753.03;;;20.69;100.00
1616;BME280;801;47.982;7.810;2022-08-01T04:10:07;98742.25;;;20.46;100.00
1616;BME280;801;47.982;7.810;2022-08-01T04:12:34;98748.84;;;20.45;100.00
1616;BME280;801;47.982;7.810;2022-08-01T04:15:00;98741.16;;;20.47;100.00
1616;BME280;801;47.982;7.810;2022-08-01T04:17:27;98746.63;;;20.47;100.00
1616;BME280;801;47.982;7.810;2022-08-01T04:19:53;98746.91;;;20.55;100.00
1616;BME280;801;47.982;7.810;2022-08-01T04:22:20;98750.31;;;20.25;100.00
1616;BME280;801;47.982;7.810;2022-08-01T04:24:48;98745.66;;;20.43;100.00
1616;BME280;801;47.982;7.810;2022-08-01T04:27:32;98750.13;;;20.39;100.00
1616;BME280;801;47.982;7.810;2022-08-01T04:29:59;98753.34;;;20.41;100.00
1616;BME280;801;47.982;7.810;2022-08-01T04:32:28;98750.75;;;20.45;100.00
1616;BME280;801;47.982;7.810;2022-08-01T04:34:58;98760.88;;;20.44;100.00
1616;BME280;801;47.982;7.810;2022-08-01T04:37:27;98755.25;;;20.49;100.00
1616;BME280;801;47.982;7.810;2022-08-01T04:39:54;98761.09;;;20.57;100.00
1616;BME280;801;47.982;7.810;2022-08-01T04:42:24;98759.47;;;20.64;100.00
1616;BME280;801;47.982;7.810;2022-08-01T04:44:51;98761.41;;;20.64;100.00
1616;BME280;801;47.982;7.810;2022-08-01T04:47:18;98762.69;;;20.58;100.00
1616;BME280;801;47.982;7.810;2022-08-01T04:49:45;98764.28;;;20.67;100.00
1616;BME280;801;47.982;7.810;2022-08-01T04:52:12;98753.69;;;20.66;100.00
1616;BME280;801;47.982;7.810;2022-08-01T04:54:38;98766.34;;;20.79;100.00
1616;BME280;801;47.982;7.810;2022-08-01T04:57:06;98762.50;;;20.80;100.00
1616;BME280;801;47.982;7.810;2022-08-01T04:59:41;98759.75;;;20.89;100.00
1616;BME280;801;47.982;7.810;2022-08-01T05:02:10;98764.41;;;20.97;100.00
1616;BME280;801;47.982;7.810;2022-08-01T05:04:37;98765.50;;;21.05;100.00
1616;BME280;801;47.982;7.810;2022-08-01T05:07:05;98758.72;;;21.11;100.00
1616;BME280;801;47.982;7.810;2022-08-01T05:09:33;98766.94;;;21.11;100.00
1616;BME280;801;47.982;7.810;2022-08-01T05:12:01;98765.34;;;21.10;100.00
1616;BME280;801;47.982;7.810;2022-08-01T05:14:29;98761.13;;;21.21;100.00
1616;BME280;801;47.982;7.810;2022-08-01T05:16:58;98759.16;;;21.30;100.00
1616;BME280;801;47.982;7.810;2022-08-01T05:19:25;98773.78;;;21.34;100.00
1616;BME280;801;47.982;7.810;2022-08-01T05:21:52;98775.19;;;21.49;100.00
1616;BME280;801;47.982;7.810;2022-08-01T05:24:19;98770.16;;;21.60;100.00
1616;BME280;801;47.982;7.810;2022-08-01T05:26:45;98771.09;;;21.64;100.00
1616;BME280;801;47.982;7.810;2022-08-01T05:29:11;98777.09;;;21.58;100.00
1616;BME280;801;47.982;7.810;2022-08-01T05:31:38;98778.34;;;21.60;100.00
1616;BME280;801;47.982;7.810;2022-08-01T05:34:06;98778.16;;;21.65;100.00
1616;BME280;801;47.982;7.810;2022-08-01T05:36:32;98781.41;;;21.59;100.00
1616;BME280;801;47.982;7.810;2022-08-01T05:38:59;98784.09;;;21.20;100.00
1616;BME280;801;47.982;7.810;2022-08-01T05:41:25;98778.38;;;20.78;100.00
1616;BME280;801;47.982;7.810;2022-08-01T05:43:52;98785.47;;;20.62;100.00
1616;BME280;801;47.982;7.810;2022-08-01T05:46:19;98774.84;;;20.51;100.00
1616;BME280;801;47.982;7.810;2022-08-01T05:48:45;98786.59;;;20.52;100.00
1616;BME280;801;47.982;7.810;2022-08-01T05:51:13;98781.91;;;20.35;100.00
1616;BME280;801;47.982;7.810;2022-08-01T05:53:39;98786.41;;;20.31;100.00
1616;BME280;801;47.982;7.810;2022-08-01T05:56:06;98782.69;;;20.27;100.00
1616;BME280;801;47.982;7.810;2022-08-01T05:58:33;98789.78;;;20.37;100.00
1616;BME280;801;47.982;7.810;2022-08-01T06:00:59;98781.91;;;20.35;100.00
1616;BME280;801;47.982;7.810;2022-08-01T06:03:26;98785.78;;;20.34;100.00
1616;BME280;801;47.982;7.810;2022-08-01T06:05:56;98791.56;;;20.41;100.00
1616;BME280;801;47.982;7.810;2022-08-01T06:08:24;98787.06;;;20.63;100.00
1616;BME280;801;47.982;7.810;2022-08-01T06:10:50;98787.06;;;20.71;100.00
1616;BME280;801;47.982;7.810;2022-08-01T06:13:17;98788.03;;;20.76;100.00
1616;BME280;801;47.982;7.810;2022-08-01T06:15:44;98784.63;;;20.87;100.00
1616;BME280;801;47.982;7.810;2022-08-01T06:18:11;98789.28;;;20.96;100.00
1616;BME280;801;47.982;7.810;2022-08-01T06:20:38;98785.25;;;21.10;100.00
1616;BME280;801;47.982;7.810;2022-08-01T06:23:04;98782.66;;;21.14;100.00
1616;BME280;801;47.982;7.810;2022-08-01T06:25:32;98780.88;;;21.18;100.00
1616;BME280;801;47.982;7.810;2022-08-01T06:27:59;98787.75;;;21.33;100.00
1616;BME280;801;47.982;7.810;2022-08-01T06:30:26;98787.25;;;21.48;100.00
1616;BME280;801;47.982;7.810;2022-08-01T06:32:52;98786.72;;;21.64;100.00
1616;BME280;801;47.982;7.810;2022-08-01T06:35:21;98793.41;;;21.75;100.00
1616;BME280;801;47.982;7.810;2022-08-01T06:37:48;98790.72;;;21.66;100.00
1616;BME280;801;47.982;7.810;2022-08-01T06:40:15;98790.06;;;21.69;100.00
1616;BME280;801;47.982;7.810;2022-08-01T06:42:43;98794.69;;;21.77;100.00
1616;BME280;801;47.982;7.810;2022-08-01T06:45:12;98791.28;;;21.81;100.00
1616;BME280;801;47.982;7.810;2022-08-01T06:47:39;98786.75;;;21.85;100.00
1616;BME280;801;47.982;7.810;2022-08-01T06:50:08;98792.56;;;21.83;100.00
1616;BME280;801;47.982;7.810;2022-08-01T06:52:35;98793.84;;;21.86;100.00
1616;BME280;801;47.982;7.810;2022-08-01T06:55:03;98795.59;;;21.90;100.00
1616;BME280;801;47.982;7.810;2022-08-01T06:57:29;98790.16;;;22.11;100.00
1616;BME280;801;47.982;7.810;2022-08-01T06:59:57;98792.22;;;22.14;100.00
1616;BME280;801;47.982;7.810;2022-08-01T07:02:26;98789.38;;;22.32;100.00
1616;BME280;801;47.982;7.810;2022-08-01T07:04:53;98784.94;;;22.18;100.00
1616;BME280;801;47.982;7.810;2022-08-01T07:07:19;98788.91;;;22.30;100.00
1616;BME280;801;47.982;7.810;2022-08-01T07:09:46;98788.78;;;22.47;100.00
1616;BME280;801;47.982;7.810;2022-08-01T07:12:12;98785.91;;;22.65;100.00
1616;BME280;801;47.982;7.810;2022-08-01T07:14:39;98786.50;;;22.70;100.00
1616;BME280;801;47.982;7.810;2022-08-01T07:17:07;98789.78;;;22.64;100.00
1616;BME280;801;47.982;7.810;2022-08-01T07:19:33;98782.72;;;22.63;100.00
1616;BME280;801;47.982;7.810;2022-08-01T07:22:00;98780.63;;;22.93;100.00
1616;BME280;801;47.982;7.810;2022-08-01T07:24:26;98773.81;;;22.99;99.75
1616;BME280;801;47.982;7.810;2022-08-01T07:26:54;98782.81;;;22.87;100.00
1616;BME280;801;47.982;7.810;2022-08-01T07:29:22;98775.69;;;23.07;100.00
1616;BME280;801;47.982;7.810;2022-08-01T07:31:49;98787.47;;;23.08;99.69
1616;BME280;801;47.982;7.810;2022-08-01T07:34:17;98782.91;;;23.24;99.39
1616;BME280;801;47.982;7.810;2022-08-01T07:36:44;98772.44;;;23.38;99.23
1616;BME280;801;47.982;7.810;2022-08-01T07:39:10;98770.16;;;23.40;98.24
1616;BME280;801;47.982;7.810;2022-08-01T07:41:37;98771.53;;;23.34;97.69
1616;BME280;801;47.982;7.810;2022-08-01T07:44:03;98766.81;;;23.23;100.00
1616;BME280;801;47.982;7.810;2022-08-01T07:46:30;98771.75;;;23.41;97.71
1616;BME280;801;47.982;7.810;2022-08-01T07:48:57;98771.66;;;23.50;96.42
1616;BME280;801;47.982;7.810;2022-08-01T07:51:25;98773.34;;;23.30;96.71
1616;BME280;801;47.982;7.810;2022-08-01T07:53:51;98757.72;;;23.43;95.67
1616;BME280;801;47.982;7.810;2022-08-01T07:56:18;98762.16;;;23.48;94.81
1616;BME280;801;47.982;7.810;2022-08-01T07:58:45;98763.31;;;23.59;94.53
1616;BME280;801;47.982;7.810;2022-08-01T08:01:13;98762.63;;;23.87;93.83
1616;BME280;801;47.982;7.810;2022-08-01T08:03:39;98758.59;;;24.09;91.34
1616;BME280;801;47.982;7.810;2022-08-01T08:06:06;98762.72;;;24.15;90.41
1616;BME280;801;47.982;7.810;2022-08-01T08:08:34;98767.09;;;24.03;90.36
1616;BME280;801;47.982;7.810;2022-08-01T08:11:01;98761.94;;;24.14;89.46
1616;BME280;801;47.982;7.810;2022-08-01T08:13:27;98756.00;;;24.00;90.65
1616;BME280;801;47.982;7.810;2022-08-01T08:15:54;98758.72;;;24.12;89.34
1616;BME280;801;47.982;7.810;2022-08-01T08:18:20;98750.03;;;24.22;88.32
1616;BME280;801;47.982;7.810;2022-08-01T08:20:47;98752.53;;;24.28;87.87
1616;BME280;801;47.982;7.810;2022-08-01T08:23:13;98748.22;;;24.42;86.63
1616;BME280;801;47.982;7.810;2022-08-01T08:25:58;98751.09;;;24.46;85.53
1616;BME280;801;47.982;7.810;2022-08-01T08:28:24;98745.44;;;24.67;84.86
1616;BME280;801;47.982;7.810;2022-08-01T08:30:51;98750.19;;;24.54;86.00
1616;BME280;801;47.982;7.810;2022-08-01T08:33:18;98756.69;;;24.78;84.70
1616;BME280;801;47.982;7.810;2022-08-01T08:35:44;98748.56;;;25.25;82.82
1616;BME280;801;47.982;7.810;2022-08-01T08:38:11;98758.34;;;25.23;82.24
1616;BME280;801;47.982;7.810;2022-08-01T08:40:37;98754.81;;;24.94;83.48
1616;BME280;801;47.982;7.810;2022-08-01T08:43:05;98756.81;;;25.41;80.48
1616;BME280;801;47.982;7.810;2022-08-01T08:45:33;98758.75;;;25.25;80.57
1616;BME280;801;47.982;7.810;2022-08-01T08:47:59;98752.72;;;25.19;79.90
1616;BME280;801;47.982;7.810;2022-08-01T08:50:27;98751.75;;;25.43;79.82
1616;BME280;801;47.982;7.810;2022-08-01T08:52:55;98753.06;;;25.50;78.64
1616;BME280;801;47.982;7.810;2022-08-01T08:55:22;98754.84;;;25.58;77.54
1616;BME280;801;47.982;7.810;2022-08-01T08:57:50;98755.91;;;25.69;76.81
1616;BME280;801;47.982;7.810;2022-08-01T09:00:18;98745.69;;;25.69;76.39
1616;BME280;801;47.982;7.810;2022-08-01T09:02:45;98750.69;;;25.48;77.67
1616;BME280;801;47.982;7.810;2022-08-01T09:05:14;98747.56;;;25.81;76.91
1616;BME280;801;47.982;7.810;2022-08-01T09:07:42;98745.19;;;26.15;74.43
1616;BME280;801;47.982;7.810;2022-08-01T09:10:09;98754.56;;;25.95;75.27
1616;BME280;801;47.982;7.810;2022-08-01T09:12:36;98753.69;;;25.91;74.18
1616;BME280;801;47.982;7.810;2022-08-01T09:15:03;98749.69;;;26.23;72.92
1616;BME280;801;47.982;7.810;2022-08-01T09:17:40;98753.88;;;26.17;70.89
1616;BME280;801;47.982;7.810;2022-08-01T09:20:07;98755.56;;;26.22;71.79
1616;BME280;801;47.982;7.810;2022-08-01T09:22:34;98753.81;;;26.33;71.70
1616;BME280;801;47.982;7.810;2022-08-01T09:25:03;98759.31;;;26.68;70.06
1616;BME280;801;47.982;7.810;2022-08-01T09:27:31;98757.25;;;26.65;66.53
1616;BME280;801;47.982;7.810;2022-08-01T09:30:08;98746.72;;;26.51;66.83
1616;BME280;801;47.982;7.810;2022-08-01T09:32:35;98743.59;;;26.53;67.21
1616;BME280;801;47.982;7.810;2022-08-01T09:35:24;98743.53;;;27.11;64.92
1616;BME280;801;47.982;7.810;2022-08-01T09:38:11;98737.13;;;27.04;65.01
1616;BME280;801;47.982;7.810;2022-08-01T09:40:45;98736.19;;;27.19;62.74
1616;BME280;801;47.982;7.810;2022-08-01T09:43:12;98739.91;;;27.27;63.26
1616;BME280;801;47.982;7.810;2022-08-01T09:45:38;98741.69;;;26.96;63.30
1616;BME280;801;47.982;7.810;2022-08-01T09:48:06;98743.31;;;27.20;62.10
1616;BME280;801;47.982;7.810;2022-08-01T09:50:40;98736.56;;;27.41;61.28
1616;BME280;801;47.982;7.810;2022-08-01T09:53:07;98731.13;;;27.44;61.17
1616;BME280;801;47.982;7.810;2022-08-01T09:55:34;98732.28;;;27.66;60.96
1616;BME280;801;47.982;7.810;2022-08-01T09:58:00;98730.47;;;27.78;61.23
1616;BME280;801;47.982;7.810;2022-08-01T10:00:27;98727.38;;;27.83;60.48
1616;BME280;801;47.982;7.810;2022-08-01T10:02:53;98734.22;;;27.92;60.64
1616;BME280;801;47.982;7.810;2022-08-01T10:05:30;98730.91;;;27.83;61.65
1616;BME280;801;47.982;7.810;2022-08-01T10:08:00;98722.88;;;27.98;59.26
1616;BME280;801;47.982;7.810;2022-08-01T10:10:28;98725.41;;;28.10;58.76
1616;BME280;801;47.982;7.810;2022-08-01T10:12:56;98722.16;;;28.34;57.24
1616;BME280;801;47.982;7.810;2022-08-01T10:15:24;98725.44;;;28.44;57.03
1616;BME280;801;47.982;7.810;2022-08-01T10:17:53;98721.09;;;28.43;55.85
1616;BME280;801;47.982;7.810;2022-08-01T10:20:23;98718.41;;;28.20;58.32
1616;BME280;801;47.982;7.810;2022-08-01T10:22:52;98716.81;;;28.49;56.50
1616;BME280;801;47.982;7.810;2022-08-01T10:25:21;98717.91;;;28.41;55.00
1616;BME280;801;47.982;7.810;2022-08-01T10:27:49;98709.97;;;28.05;55.63
1616;BME280;801;47.982;7.810;2022-08-01T10:30:20;98710.28;;;28.30;56.17
1616;BME280;801;47.982;7.810;2022-08-01T10:32:48;98708.78;;;28.36;55.91
1616;BME280;801;47.982;7.810;2022-08-01T10:35:15;98697.44;;;28.15;57.02
1616;BME280;801;47.982;7.810;2022-08-01T10:37:43;98692.56;;;28.35;56.76
1616;BME280;801;47.982;7.810;2022-08-01T10:40:11;98690.47;;;28.96;56.81
1616;BME280;801;47.982;7.810;2022-08-01T10:42:41;98690.47;;;28.96;54.59
1616;BME280;801;47.982;7.810;2022-08-01T10:45:09;98690.81;;;29.32;53.01
1616;BME280;801;47.982;7.810;2022-08-01T10:47:42;98690.81;;;29.35;49.50
1616;BME280;801;47.982;7.810;2022-08-01T10:50:14;98696.44;;;28.98;49.04
1616;BME280;801;47.982;7.810;2022-08-01T10:52:42;98696.34;;;28.91;47.70
1616;BME280;801;47.982;7.810;2022-08-01T10:55:28;98696.69;;;28.86;48.24
1616;BME280;801;47.982;7.810;2022-08-01T10:57:56;98692.28;;;29.18;47.24
1616;BME280;801;47.982;7.810;2022-08-01T11:00:22;98683.59;;;29.20;44.23
1616;BME280;801;47.982;7.810;2022-08-01T11:02:57;98677.63;;;29.18;46.24
1616;BME280;801;47.982;7.810;2022-08-01T11:05:26;98677.31;;;29.27;47.08
1616;BME280;801;47.982;7.810;2022-08-01T11:07:54;98682.19;;;29.44;45.53
1616;BME280;801;47.982;7.810;2022-08-01T11:10:24;98677.19;;;29.61;46.64
1616;BME280;801;47.982;7.810;2022-08-01T11:12:51;98669.84;;;29.31;45.46
1616;BME280;801;47.982;7.810;2022-08-01T11:15:25;98678.28;;;29.49;44.05
1616;BME280;801;47.982;7.810;2022-08-01T11:17:53;98674.00;;;29.58;44.24
1616;BME280;801;47.982;7.810;2022-08-01T11:20:21;98670.59;;;29.79;42.07
1616;BME280;801;47.982;7.810;2022-08-01T11:26:20;98668.72;;;30.05;44.31
1616;BME280;801;47.982;7.810;2022-08-01T11:29:12;98658.53;;;30.24;43.69
1616;BME280;801;47.982;7.810;2022-08-01T11:31:41;98655.16;;;29.82;43.58
1616;BME280;801;47.982;7.810;2022-08-01T11:34:07;98655.69;;;30.09;43.89
1616;BME280;801;47.982;7.810;2022-08-01T11:36:34;98660.16;;;30.35;43.48
1616;BME280;801;47.982;7.810;2022-08-01T11:39:15;98647.09;;;30.36;44.35
1616;BME280;801;47.982;7.810;2022-08-01T11:41:43;98640.75;;;30.35;44.47
1616;BME280;801;47.982;7.810;2022-08-01T11:44:11;98642.41;;;30.58;44.15
1616;BME280;801;47.982;7.810;2022-08-01T11:47:00;98640.88;;;30.86;43.86
1616;BME280;801;47.982;7.810;2022-08-01T11:49:34;98644.75;;;30.49;44.12
1616;BME280;801;47.982;7.810;2022-08-01T11:52:11;98642.16;;;29.93;44.38
1616;BME280;801;47.982;7.810;2022-08-01T11:54:40;98634.72;;;30.08;44.87
1616;BME280;801;47.982;7.810;2022-08-01T11:57:07;98636.84;;;30.58;43.37
1616;BME280;801;47.982;7.810;2022-08-01T11:59:37;98637.63;;;30.58;43.66
1616;BME280;801;47.982;7.810;2022-08-01T12:02:15;98638.84;;;30.82;43.13
1616;BME280;801;47.982;7.810;2022-08-01T12:04:46;98630.94;;;30.70;42.94
1616;BME280;801;47.982;7.810;2022-08-01T12:07:13;98636.78;;;30.36;41.49
1616;BME280;801;47.982;7.810;2022-08-01T12:09:40;98640.03;;;30.74;41.37
1616;BME280;801;47.982;7.810;2022-08-01T12:12:07;98635.28;;;30.78;41.46
1616;BME280;801;47.982;7.810;2022-08-01T12:14:33;98641.69;;;30.97;41.22
1616;BME280;801;47.982;7.810;2022-08-01T12:17:00;98633.72;;;30.85;41.41
1616;BME280;801;47.982;7.810;2022-08-01T12:19:28;98626.97;;;30.82;41.68
1616;BME280;801;47.982;7.810;2022-08-01T12:22:08;98618.28;;;30.83;42.56
1616;BME280;801;47.982;7.810;2022-08-01T12:24:36;98622.25;;;31.08;41.77
1616;BME280;801;47.982;7.810;2022-08-01T12:27:03;98621.81;;;31.59;40.00
1616;BME280;801;47.982;7.810;2022-08-01T12:29:32;98610.34;;;31.43;40.88
1616;BME280;801;47.982;7.810;2022-08-01T12:31:58;98626.94;;;30.46;41.97
1616;BME280;801;47.982;7.810;2022-08-01T12:34:25;98631.47;;;29.95;42.25
1616;BME280;801;47.982;7.810;2022-08-01T12:36:54;98619.81;;;30.63;41.29
1616;BME280;801;47.982;7.810;2022-08-01T12:39:21;98623.31;;;30.31;41.75
1616;BME280;801;47.982;7.810;2022-08-01T12:41:48;98609.13;;;30.51;41.29
1616;BME280;801;47.982;7.810;2022-08-01T12:44:15;98613.94;;;31.04;40.14
1616;BME280;801;47.982;7.810;2022-08-01T12:46:43;98607.19;;;31.19;39.88
1616;BME280;801;47.982;7.810;2022-08-01T12:49:09;98612.72;;;30.73;41.06
1616;BME280;801;47.982;7.810;2022-08-01T12:51:36;98622.19;;;30.54;40.82
1616;BME280;801;47.982;7.810;2022-08-01T12:54:05;98615.44;;;30.51;41.07
1616;BME280;801;47.982;7.810;2022-08-01T12:56:35;98616.28;;;30.77;40.61
1616;BME280;801;47.982;7.810;2022-08-01T12:59:19;98607.97;;;31.20;40.13
1616;BME280;801;47.982;7.810;2022-08-01T13:01:46;98610.72;;;31.49;39.79
1616;BME280;801;47.982;7.810;2022-08-01T13:04:12;98613.78;;;31.97;39.85
1616;BME280;801;47.982;7.810;2022-08-01T13:06:39;98611.06;;;31.65;38.99
1616;BME280;801;47.982;7.810;2022-08-01T13:09:08;98600.44;;;31.20;39.57
1616;BME280;801;47.982;7.810;2022-08-01T13:11:35;98596.47;;;31.29;39.47
1616;BME280;801;47.982;7.810;2022-08-01T13:14:02;98592.03;;;31.67;39.19
1616;BME280;801;47.982;7.810;2022-08-01T13:16:28;98600.34;;;31.71;38.29
1616;BME280;801;47.982;7.810;2022-08-01T13:18:56;98594.69;;;32.03;38.15
1616;BME280;801;47.982;7.810;2022-08-01T13:21:24;98597.50;;;31.85;38.31
1616;BME280;801;47.982;7.810;2022-08-01T13:24:02;98589.69;;;31.48;38.47
1616;BME280;801;47.982;7.810;2022-08-01T13:26:45;98594.88;;;31.24;39.96
1616;BME280;801;47.982;7.810;2022-08-01T13:29:14;98589.34;;;30.92;39.92
1616;BME280;801;47.982;7.810;2022-08-01T13:31:41;98592.09;;;31.24;39.30
1616;BME280;801;47.982;7.810;2022-08-01T13:34:08;98588.44;;;31.77;38.74
1616;BME280;801;47.982;7.810;2022-08-01T13:36:35;98582.16;;;31.34;39.29
1616;BME280;801;47.982;7.810;2022-08-01T13:39:03;98582.19;;;31.48;38.77
1616;BME280;801;47.982;7.810;2022-08-01T13:41:49;98567.50;;;31.33;39.32
1616;BME280;801;47.982;7.810;2022-08-01T13:44:16;98572.25;;;31.26;39.30
1616;BME280;801;47.982;7.810;2022-08-01T13:46:43;98583.78;;;30.99;41.54
1616;BME280;801;47.982;7.810;2022-08-01T13:49:11;98583.38;;;30.82;42.17
1616;BME280;801;47.982;7.810;2022-08-01T13:51:38;98581.41;;;30.83;42.34
1616;BME280;801;47.982;7.810;2022-08-01T13:54:05;98569.16;;;31.02;42.34
1616;BME280;801;47.982;7.810;2022-08-01T13:56:33;98572.31;;;31.15;42.70
1616;BME280;801;47.982;7.810;2022-08-01T13:59:00;98574.31;;;30.93;42.88
1616;BME280;801;47.982;7.810;2022-08-01T14:01:27;98580.66;;;30.97;43.34
1616;BME280;801;47.982;7.810;2022-08-01T14:03:53;98573.50;;;30.89;43.23
1616;BME280;801;47.982;7.810;2022-08-01T14:06:20;98572.28;;;31.33;42.98
1616;BME280;801;47.982;7.810;2022-08-01T14:08:47;98564.34;;;31.35;42.60
1616;BME280;801;47.982;7.810;2022-08-01T14:11:14;98563.97;;;31.18;42.07
1616;BME280;801;47.982;7.810;2022-08-01T14:13:41;98565.50;;;31.44;42.66
1616;BME280;801;47.982;7.810;2022-08-01T14:16:09;98562.75;;;31.27;43.18
1616;BME280;801;47.982;7.810;2022-08-01T14:18:35;98567.06;;;31.60;43.58
1616;BME280;801;47.982;7.810;2022-08-01T14:21:02;98560.19;;;31.90;43.10
1616;BME280;801;47.982;7.810;2022-08-01T14:23:29;98565.03;;;31.68;42.62
1616;BME280;801;47.982;7.810;2022-08-01T14:25:55;98559.53;;;31.53;42.97
1616;BME280;801;47.982;7.810;2022-08-01T14:28:22;98563.97;;;31.18;43.93
1616;BME280;801;47.982;7.810;2022-08-01T14:30:49;98561.59;;;31.06;44.88
1616;BME280;801;47.982;7.810;2022-08-01T14:33:17;98567.53;;;31.12;45.19
1616;BME280;801;47.982;7.810;2022-08-01T14:35:44;98566.38;;;30.95;45.14
1616;BME280;801;47.982;7.810;2022-08-01T14:38:10;98569.16;;;31.02;44.46
1616;BME280;801;47.982;7.810;2022-08-01T14:40:37;98564.75;;;30.65;45.36
1616;BME280;801;47.982;7.810;2022-08-01T14:43:03;98575.06;;;30.75;46.05
1616;BME280;801;47.982;7.810;2022-08-01T14:45:30;98576.63;;;30.58;45.46
1616;BME280;801;47.982;7.810;2022-08-01T14:47:58;98567.13;;;30.56;45.83
1616;BME280;801;47.982;7.810;2022-08-01T14:50:26;98569.50;;;30.65;45.51
1616;BME280;801;47.982;7.810;2022-08-01T14:52:53;98571.88;;;30.52;46.23
1616;BME280;801;47.982;7.810;2022-08-01T14:55:20;98569.50;;;30.54;46.31
1616;BME280;801;47.982;7.810;2022-08-01T14:57:50;98576.25;;;30.53;46.14
1616;BME280;801;47.982;7.810;2022-08-01T15:00:17;98576.25;;;30.60;46.29
1616;BME280;801;47.982;7.810;2022-08-01T15:02:43;98571.13;;;30.98;45.72
1616;BME280;801;47.982;7.810;2022-08-01T15:05:10;98565.91;;;31.32;44.42
1616;BME280;801;47.982;7.810;2022-08-01T15:07:38;98566.91;;;31.92;42.57
1616;BME280;801;47.982;7.810;2022-08-01T15:10:05;98572.16;;;31.76;42.13
1616;BME280;801;47.982;7.810;2022-08-01T15:12:32;98573.03;;;31.40;43.10
1616;BME280;801;47.982;7.810;2022-08-01T15:14:59;98568.72;;;31.07;42.86
1616;BME280;801;47.982;7.810;2022-08-01T15:17:28;98571.91;;;31.02;43.99
1616;BME280;801;47.982;7.810;2022-08-01T15:19:57;98577.44;;;31.16;43.40
1616;BME280;801;47.982;7.810;2022-08-01T15:22:25;98578.25;;;30.99;44.14
1616;BME280;801;47.982;7.810;2022-08-01T15:24:55;98573.88;;;30.83;45.08
1616;BME280;801;47.982;7.810;2022-08-01T15:27:22;98579.81;;;31.18;45.42
1616;BME280;801;47.982;7.810;2022-08-01T15:29:49;98578.63;;;31.44;44.09
1616;BME280;801;47.982;7.810;2022-08-01T15:32:16;98591.69;;;31.33;44.73
1616;BME280;801;47.982;7.810;2022-08-01T15:34:43;98583.38;;;31.22;44.98
1616;BME280;801;47.982;7.810;2022-08-01T15:37:10;98584.13;;;31.48;44.93
1616;BME280;801;47.982;7.810;2022-08-01T15:39:37;98589.31;;;31.31;45.56
1616;BME280;801;47.982;7.810;2022-08-01T15:42:07;98584.09;;;31.55;46.29
1616;BME280;801;47.982;7.810;2022-08-01T15:44:35;98593.25;;;31.41;46.16
1616;BME280;801;47.982;7.810;2022-08-01T15:47:02;98586.06;;;31.65;46.54
1616;BME280;801;47.982;7.810;2022-08-01T15:49:29;98582.94;;;31.52;45.84
1616;BME280;801;47.982;7.810;2022-08-01T15:51:56;98578.25;;;31.17;46.35
1616;BME280;801;47.982;7.810;2022-08-01T15:54:23;98572.69;;;31.20;46.86
1616;BME280;801;47.982;7.810;2022-08-01T15:56:49;98575.88;;;30.94;46.87
1616;BME280;801;47.982;7.810;2022-08-01T15:59:17;98576.66;;;31.12;47.33
1616;BME280;801;47.982;7.810;2022-08-01T16:01:44;98583.75;;;31.46;46.12
1616;BME280;801;47.982;7.810;2022-08-01T16:04:14;98586.16;;;31.08;46.60
1616;BME280;801;47.982;7.810;2022-08-01T16:06:40;98586.56;;;30.99;46.59
1616;BME280;801;47.982;7.810;2022-08-01T16:09:07;98582.59;;;30.57;47.20